sensor_id;sensor_type;location;lat;lon;timestamp;temperature;humidity
56729;DHT22;42612;52.232;7.560;2023-11-19T00:00:36;13.10;71.30
56729;DHT22;42612;52.232;7.560;2023-11-19T00:03:01;13.10;71.30
56729;DHT22;42612;52.232;7.560;2023-11-19T00:05:27;13.20;71.40
56729;DHT22;42612;52.232;7.560;2023-11-19T00:07:54;13.10;71.30
56729;DHT22;42612;52.232;7.560;2023-11-19T00:10:20;13.20;71.40
56729;DHT22;42612;52.232;7.560;2023-11-19T00:12:47;13.20;71.40
56729;DHT22;42612;52.232;7.560;2023-11-19T00:15:14;13.20;71.40
56729;DHT22;42612;52.232;7.560;2023-11-19T00:17:42;13.20;72.50
56729;DHT22;42612;52.232;7.560;2023-11-19T00:20:15;13.20;71.10
56729;DHT22;42612;52.232;7.560;2023-11-19T00:22:42;13.20;71.50
56729;DHT22;42612;52.232;7.560;2023-11-19T00:25:09;13.30;71.30
56729;DHT22;42612;52.232;7.560;2023-11-19T00:27:36;13.30;71.40
56729;DHT22;42612;52.232;7.560;2023-11-19T00:30:04;13.30;71.50
56729;DHT22;42612;52.232;7.560;2023-11-19T00:32:31;13.30;71.50
56729;DHT22;42612;52.232;7.560;2023-11-19T00:34:58;13.30;71.50
56729;DHT22;42612;52.232;7.560;2023-11-19T00:37:23;13.40;71.60
56729;DHT22;42612;52.232;7.560;2023-11-19T00:39:49;13.40;71.60
56729;DHT22;42612;52.232;7.560;2023-11-19T00:42:15;13.40;71.70
56729;DHT22;42612;52.232;7.560;2023-11-19T00:44:41;13.40;71.70
56729;DHT22;42612;52.232;7.560;2023-11-19T00:47:07;13.40;71.80
56729;DHT22;42612;52.232;7.560;2023-11-19T00:49:32;13.40;71.70
56729;DHT22;42612;52.232;7.560;2023-11-19T00:51:59;13.40;71.80
56729;DHT22;42612;52.232;7.560;2023-11-19T00:54:25;13.50;71.90
56729;DHT22;42612;52.232;7.560;2023-11-19T00:56:54;13.50;72.00
56729;DHT22;42612;52.232;7.560;2023-11-19T00:59:20;13.50;72.00
56729;DHT22;42612;52.232;7.560;2023-11-19T01:01:46;13.50;72.00
56729;DHT22;42612;52.232;7.560;2023-11-19T01:04:16;13.50;72.00
56729;DHT22;42612;52.232;7.560;2023-11-19T01:06:42;13.60;72.20
56729;DHT22;42612;52.232;7.560;2023-11-19T01:09:08;13.60;72.40
56729;DHT22;42612;52.232;7.560;2023-11-19T01:11:34;13.60;72.40
56729;DHT22;42612;52.232;7.560;2023-11-19T01:14:00;13.60;72.30
56729;DHT22;42612;52.232;7.560;2023-11-19T01:16:27;13.60;72.30
56729;DHT22;42612;52.232;7.560;2023-11-19T01:18:53;13.60;72.40
56729;DHT22;42612;52.232;7.560;2023-11-19T01:21:18;13.70;72.40
56729;DHT22;42612;52.232;7.560;2023-11-19T01:23:44;13.70;72.40
56729;DHT22;42612;52.232;7.560;2023-11-19T01:26:11;13.70;72.40
56729;DHT22;42612;52.232;7.560;2023-11-19T01:28:38;13.70;72.50
56729;DHT22;42612;52.232;7.560;2023-11-19T01:31:14;13.80;72.50
56729;DHT22;42612;52.232;7.560;2023-11-19T01:33:40;13.80;72.40
56729;DHT22;42612;52.232;7.560;2023-11-19T01:36:07;13.80;72.50
56729;DHT22;42612;52.232;7.560;2023-11-19T01:38:34;13.80;72.40
56729;DHT22;42612;52.232;7.560;2023-11-19T01:41:00;13.80;72.60
56729;DHT22;42612;52.232;7.560;2023-11-19T01:43:36;13.90;72.60
56729;DHT22;42612;52.232;7.560;2023-11-19T01:46:03;13.90;73.00
56729;DHT22;42612;52.232;7.560;2023-11-19T01:48:32;13.90;72.70
56729;DHT22;42612;52.232;7.560;2023-11-19T01:51:01;13.90;72.80
56729;DHT22;42612;52.232;7.560;2023-11-19T01:53:27;14.00;72.80
56729;DHT22;42612;52.232;7.560;2023-11-19T01:55:54;14.00;72.80
56729;DHT22;42612;52.232;7.560;2023-11-19T01:58:21;14.00;72.80
56729;DHT22;42612;52.232;7.560;2023-11-19T02:00:46;14.00;72.80
56729;DHT22;42612;52.232;7.560;2023-11-19T02:03:14;14.10;72.80
56729;DHT22;42612;52.232;7.560;2023-11-19T02:05:40;14.10;72.70
56729;DHT22;42612;52.232;7.560;2023-11-19T02:08:06;14.10;72.80
56729;DHT22;42612;52.232;7.560;2023-11-19T02:10:32;14.10;72.80
56729;DHT22;42612;52.232;7.560;2023-11-19T02:12:58;14.10;72.90
56729;DHT22;42612;52.232;7.560;2023-11-19T02:15:24;14.20;73.00
56729;DHT22;42612;52.232;7.560;2023-11-19T02:17:51;14.20;72.90
56729;DHT22;42612;52.232;7.560;2023-11-19T02:20:17;14.20;73.10
56729;DHT22;42612;52.232;7.560;2023-11-19T02:22:46;14.20;73.10
56729;DHT22;42612;52.232;7.560;2023-11-19T02:25:19;14.30;73.10
56729;DHT22;42612;52.232;7.560;2023-11-19T02:27:58;14.30;73.40
56729;DHT22;42612;52.232;7.560;2023-11-19T02:30:25;14.30;73.50
56729;DHT22;42612;52.232;7.560;2023-11-19T02:32:58;14.30;73.00
56729;DHT22;42612;52.232;7.560;2023-11-19T02:35:27;14.30;73.20
56729;DHT22;42612;52.232;7.560;2023-11-19T02:37:54;14.40;73.10
56729;DHT22;42612;52.232;7.560;2023-11-19T02:40:20;14.40;73.30
56729;DHT22;42612;52.232;7.560;2023-11-19T02:42:49;14.40;73.90
56729;DHT22;42612;52.232;7.560;2023-11-19T02:45:15;14.50;73.20
56729;DHT22;42612;52.232;7.560;2023-11-19T02:47:42;14.50;73.20
56729;DHT22;42612;52.232;7.560;2023-11-19T02:50:09;14.50;73.30
56729;DHT22;42612;52.232;7.560;2023-11-19T02:52:43;14.50;73.30
56729;DHT22;42612;52.232;7.560;2023-11-19T02:55:11;14.50;73.40
56729;DHT22;42612;52.232;7.560;2023-11-19T02:57:40;14.50;73.20
56729;DHT22;42612;52.232;7.560;2023-11-19T03:00:21;14.60;73.20
56729;DHT22;42612;52.232;7.560;2023-11-19T03:02:57;14.60;73.30
56729;DHT22;42612;52.232;7.560;2023-11-19T03:05:35;14.60;72.90
56729;DHT22;42612;52.232;7.560;2023-11-19T03:08:01;14.60;72.80
56729;DHT22;42612;52.232;7.560;2023-11-19T03:10:26;14.60;72.70
56729;DHT22;42612;52.232;7.560;2023-11-19T03:12:52;14.70;72.70
56729;DHT22;42612;52.232;7.560;2023-11-19T03:15:18;14.70;72.60
56729;DHT22;42612;52.232;7.560;2023-11-19T03:17:44;14.70;72.60
56729;DHT22;42612;52.232;7.560;2023-11-19T03:20:11;14.70;72.70
56729;DHT22;42612;52.232;7.560;2023-11-19T03:22:40;14.70;72.80
56729;DHT22;42612;52.232;7.560;2023-11-19T03:25:10;14.70;72.70
56729;DHT22;42612;52.232;7.560;2023-11-19T03:27:36;14.80;72.80
56729;DHT22;42612;52.232;7.560;2023-11-19T03:30:04;14.80;72.80
56729;DHT22;42612;52.232;7.560;2023-11-19T03:32:34;14.80;72.70
56729;DHT22;42612;52.232;7.560;2023-11-19T03:35:03;14.80;72.80
56729;DHT22;42612;52.232;7.560;2023-11-19T03:37:30;14.90;72.60
56729;DHT22;42612;52.232;7.560;2023-11-19T03:39:57;14.90;72.60
56729;DHT22;42612;52.232;7.560;2023-11-19T03:42:25;14.90;72.50
56729;DHT22;42612;52.232;7.560;2023-11-19T03:44:52;14.90;72.50
56729;DHT22;42612;52.232;7.560;2023-11-19T03:47:19;15.00;72.40
56729;DHT22;42612;52.232;7.560;2023-11-19T03:49:51;14.90;72.30
56729;DHT22;42612;52.232;7.560;2023-11-19T03:52:18;15.00;72.70
56729;DHT22;42612;52.232;7.560;2023-11-19T03:54:44;15.00;72.40
56729;DHT22;42612;52.232;7.560;2023-11-19T03:57:11;15.00;72.50
56729;DHT22;42612;52.232;7.560;2023-11-19T03:59:38;15.10;72.40
56729;DHT22;42612;52.232;7.560;2023-11-19T04:02:04;15.00;72.20
56729;DHT22;42612;52.232;7.560;2023-11-19T04:04:30;15.10;72.10
56729;DHT22;42612;52.232;7.560;2023-11-19T04:06:56;15.10;72.10
56729;DHT22;42612;52.232;7.560;2023-11-19T04:09:22;15.10;72.10
56729;DHT22;42612;52.232;7.560;2023-11-19T04:11:48;15.10;72.00
56729;DHT22;42612;52.232;7.560;2023-11-19T04:14:14;15.10;72.00
56729;DHT22;42612;52.232;7.560;2023-11-19T04:16:40;15.10;71.90
56729;DHT22;42612;52.232;7.560;2023-11-19T04:19:06;15.20;72.00
56729;DHT22;42612;52.232;7.560;2023-11-19T04:21:32;15.20;71.90
56729;DHT22;42612;52.232;7.560;2023-11-19T04:23:58;15.20;71.80
56729;DHT22;42612;52.232;7.560;2023-11-19T04:26:24;15.20;71.60
56729;DHT22;42612;52.232;7.560;2023-11-19T04:28:50;15.20;71.60
56729;DHT22;42612;52.232;7.560;2023-11-19T04:31:16;15.20;71.60
56729;DHT22;42612;52.232;7.560;2023-11-19T04:33:42;15.20;71.80
56729;DHT22;42612;52.232;7.560;2023-11-19T04:36:09;15.20;71.40
56729;DHT22;42612;52.232;7.560;2023-11-19T04:38:35;15.20;71.20
56729;DHT22;42612;52.232;7.560;2023-11-19T04:41:04;15.20;71.10
56729;DHT22;42612;52.232;7.560;2023-11-19T04:43:31;15.20;71.00
56729;DHT22;42612;52.232;7.560;2023-11-19T04:45:57;15.20;71.00
56729;DHT22;42612;52.232;7.560;2023-11-19T04:48:23;15.20;70.90
56729;DHT22;42612;52.232;7.560;2023-11-19T04:50:50;15.20;70.80
56729;DHT22;42612;52.232;7.560;2023-11-19T04:53:19;15.20;70.70
56729;DHT22;42612;52.232;7.560;2023-11-19T04:55:45;15.20;70.60
56729;DHT22;42612;52.232;7.560;2023-11-19T04:58:10;15.20;70.60
56729;DHT22;42612;52.232;7.560;2023-11-19T05:00:36;15.20;70.60
56729;DHT22;42612;52.232;7.560;2023-11-19T05:03:02;15.20;70.60
56729;DHT22;42612;52.232;7.560;2023-11-19T05:05:28;15.20;70.60
56729;DHT22;42612;52.232;7.560;2023-11-19T05:07:54;15.20;70.50
56729;DHT22;42612;52.232;7.560;2023-11-19T05:10:20;15.20;70.50
56729;DHT22;42612;52.232;7.560;2023-11-19T05:12:46;15.20;70.40
56729;DHT22;42612;52.232;7.560;2023-11-19T05:15:12;15.20;70.20
56729;DHT22;42612;52.232;7.560;2023-11-19T05:17:38;15.20;70.10
56729;DHT22;42612;52.232;7.560;2023-11-19T05:20:04;15.20;70.00
56729;DHT22;42612;52.232;7.560;2023-11-19T05:22:41;15.20;69.90
56729;DHT22;42612;52.232;7.560;2023-11-19T05:25:07;15.10;69.70
56729;DHT22;42612;52.232;7.560;2023-11-19T05:27:34;15.10;69.60
56729;DHT22;42612;52.232;7.560;2023-11-19T05:30:02;15.20;69.50
56729;DHT22;42612;52.232;7.560;2023-11-19T05:32:35;15.10;69.40
56729;DHT22;42612;52.232;7.560;2023-11-19T05:35:01;15.10;69.30
56729;DHT22;42612;52.232;7.560;2023-11-19T05:37:27;15.10;69.20
56729;DHT22;42612;52.232;7.560;2023-11-19T05:39:53;15.00;69.10
56729;DHT22;42612;52.232;7.560;2023-11-19T05:42:18;15.00;69.00
56729;DHT22;42612;52.232;7.560;2023-11-19T05:44:44;15.00;68.90
56729;DHT22;42612;52.232;7.560;2023-11-19T05:47:10;14.90;68.80
56729;DHT22;42612;52.232;7.560;2023-11-19T05:49:36;14.90;68.70
56729;DHT22;42612;52.232;7.560;2023-11-19T05:52:01;14.90;68.70
56729;DHT22;42612;52.232;7.560;2023-11-19T05:54:28;14.90;68.70
56729;DHT22;42612;52.232;7.560;2023-11-19T05:56:54;14.90;68.70
56729;DHT22;42612;52.232;7.560;2023-11-19T05:59:20;14.90;68.60
56729;DHT22;42612;52.232;7.560;2023-11-19T06:01:48;14.80;68.60
56729;DHT22;42612;52.232;7.560;2023-11-19T06:04:14;14.80;68.50
56729;DHT22;42612;52.232;7.560;2023-11-19T06:06:39;14.80;68.40
56729;DHT22;42612;52.232;7.560;2023-11-19T06:09:06;14.80;69.10
56729;DHT22;42612;52.232;7.560;2023-11-19T06:11:33;14.80;69.10
56729;DHT22;42612;52.232;7.560;2023-11-19T06:14:01;14.80;68.30
56729;DHT22;42612;52.232;7.560;2023-11-19T06:16:28;14.80;68.30
56729;DHT22;42612;52.232;7.560;2023-11-19T06:18:54;14.80;68.30
56729;DHT22;42612;52.232;7.560;2023-11-19T06:21:20;14.80;68.30
56729;DHT22;42612;52.232;7.560;2023-11-19T06:23:45;14.80;68.20
56729;DHT22;42612;52.232;7.560;2023-11-19T06:26:11;14.80;68.10
56729;DHT22;42612;52.232;7.560;2023-11-19T06:28:37;14.80;68.00
56729;DHT22;42612;52.232;7.560;2023-11-19T06:31:03;14.80;67.90
56729;DHT22;42612;52.232;7.560;2023-11-19T06:33:29;14.80;67.90
56729;DHT22;42612;52.232;7.560;2023-11-19T06:35:55;14.70;67.90
56729;DHT22;42612;52.232;7.560;2023-11-19T06:38:20;14.80;67.80
56729;DHT22;42612;52.232;7.560;2023-11-19T06:40:46;14.80;67.70
56729;DHT22;42612;52.232;7.560;2023-11-19T06:43:12;14.70;67.70
56729;DHT22;42612;52.232;7.560;2023-11-19T06:45:37;14.80;67.70
56729;DHT22;42612;52.232;7.560;2023-11-19T06:48:04;14.80;67.60
56729;DHT22;42612;52.232;7.560;2023-11-19T06:50:30;14.80;67.60
56729;DHT22;42612;52.232;7.560;2023-11-19T06:52:59;14.80;67.60
56729;DHT22;42612;52.232;7.560;2023-11-19T06:55:26;14.80;67.60
56729;DHT22;42612;52.232;7.560;2023-11-19T06:57:52;14.80;67.40
56729;DHT22;42612;52.232;7.560;2023-11-19T07:00:18;14.80;67.40
56729;DHT22;42612;52.232;7.560;2023-11-19T07:02:44;14.80;67.40
56729;DHT22;42612;52.232;7.560;2023-11-19T07:05:10;14.80;67.30
56729;DHT22;42612;52.232;7.560;2023-11-19T07:07:37;14.80;67.20
56729;DHT22;42612;52.232;7.560;2023-11-19T07:10:03;14.80;67.20
56729;DHT22;42612;52.232;7.560;2023-11-19T07:12:31;14.70;67.10
56729;DHT22;42612;52.232;7.560;2023-11-19T07:14:56;14.80;67.20
56729;DHT22;42612;52.232;7.560;2023-11-19T07:17:22;14.80;67.10
56729;DHT22;42612;52.232;7.560;2023-11-19T07:19:49;14.70;67.00
56729;DHT22;42612;52.232;7.560;2023-11-19T07:22:15;14.70;67.10
56729;DHT22;42612;52.232;7.560;2023-11-19T07:24:42;14.70;67.10
56729;DHT22;42612;52.232;7.560;2023-11-19T07:27:08;14.70;67.10
56729;DHT22;42612;52.232;7.560;2023-11-19T07:29:34;14.70;67.10
56729;DHT22;42612;52.232;7.560;2023-11-19T07:32:01;14.70;67.10
56729;DHT22;42612;52.232;7.560;2023-11-19T07:34:30;14.70;67.10
56729;DHT22;42612;52.232;7.560;2023-11-19T07:36:56;14.70;67.10
56729;DHT22;42612;52.232;7.560;2023-11-19T07:39:24;14.70;67.10
56729;DHT22;42612;52.232;7.560;2023-11-19T07:41:50;14.70;67.10
56729;DHT22;42612;52.232;7.560;2023-11-19T07:44:16;14.70;67.10
56729;DHT22;42612;52.232;7.560;2023-11-19T07:46:42;14.70;67.00
56729;DHT22;42612;52.232;7.560;2023-11-19T07:49:07;14.70;67.70
56729;DHT22;42612;52.232;7.560;2023-11-19T07:51:33;14.70;67.00
56729;DHT22;42612;52.232;7.560;2023-11-19T07:53:59;14.70;67.00
56729;DHT22;42612;52.232;7.560;2023-11-19T07:56:24;14.70;66.90
56729;DHT22;42612;52.232;7.560;2023-11-19T07:58:50;14.70;66.90
56729;DHT22;42612;52.232;7.560;2023-11-19T08:01:16;14.70;66.90
56729;DHT22;42612;52.232;7.560;2023-11-19T08:03:42;14.60;66.80
56729;DHT22;42612;52.232;7.560;2023-11-19T08:06:08;14.70;66.90
56729;DHT22;42612;52.232;7.560;2023-11-19T08:08:33;14.70;66.80
56729;DHT22;42612;52.232;7.560;2023-11-19T08:11:00;14.70;66.70
56729;DHT22;42612;52.232;7.560;2023-11-19T08:13:26;14.70;66.80
56729;DHT22;42612;52.232;7.560;2023-11-19T08:15:52;14.70;66.70
56729;DHT22;42612;52.232;7.560;2023-11-19T08:18:17;14.70;66.70
56729;DHT22;42612;52.232;7.560;2023-11-19T08:20:44;14.70;66.60
56729;DHT22;42612;52.232;7.560;2023-11-19T08:23:10;14.70;67.30
56729;DHT22;42612;52.232;7.560;2023-11-19T08:25:36;14.70;66.60
56729;DHT22;42612;52.232;7.560;2023-11-19T08:28:02;14.70;66.60
56729;DHT22;42612;52.232;7.560;2023-11-19T08:30:29;14.70;66.50
56729;DHT22;42612;52.232;7.560;2023-11-19T08:32:55;14.70;66.50
56729;DHT22;42612;52.232;7.560;2023-11-19T08:35:21;14.70;66.50
56729;DHT22;42612;52.232;7.560;2023-11-19T08:37:47;14.70;66.50
56729;DHT22;42612;52.232;7.560;2023-11-19T08:40:13;14.70;66.50
56729;DHT22;42612;52.232;7.560;2023-11-19T08:42:39;14.70;66.40
56729;DHT22;42612;52.232;7.560;2023-11-19T08:45:06;14.70;66.40
56729;DHT22;42612;52.232;7.560;2023-11-19T08:47:35;14.70;66.40
56729;DHT22;42612;52.232;7.560;2023-11-19T08:50:02;14.80;66.40
56729;DHT22;42612;52.232;7.560;2023-11-19T08:52:29;14.70;66.40
56729;DHT22;42612;52.232;7.560;2023-11-19T08:54:55;14.70;66.50
56729;DHT22;42612;52.232;7.560;2023-11-19T08:57:21;14.70;66.40
56729;DHT22;42612;52.232;7.560;2023-11-19T08:59:47;14.70;66.40
56729;DHT22;42612;52.232;7.560;2023-11-19T09:02:12;14.70;66.20
56729;DHT22;42612;52.232;7.560;2023-11-19T09:04:38;14.70;66.30
56729;DHT22;42612;52.232;7.560;2023-11-19T09:07:04;14.70;66.40
56729;DHT22;42612;52.232;7.560;2023-11-19T09:09:29;14.80;66.40
56729;DHT22;42612;52.232;7.560;2023-11-19T09:11:55;14.80;66.30
56729;DHT22;42612;52.232;7.560;2023-11-19T09:14:21;14.80;66.20
56729;DHT22;42612;52.232;7.560;2023-11-19T09:16:51;14.80;66.30
56729;DHT22;42612;52.232;7.560;2023-11-19T09:19:18;14.90;66.40
56729;DHT22;42612;52.232;7.560;2023-11-19T09:21:43;14.90;66.30
56729;DHT22;42612;52.232;7.560;2023-11-19T09:24:09;14.90;66.30
56729;DHT22;42612;52.232;7.560;2023-11-19T09:26:35;14.90;66.30
56729;DHT22;42612;52.232;7.560;2023-11-19T09:29:02;14.90;66.10
56729;DHT22;42612;52.232;7.560;2023-11-19T09:31:27;15.00;66.10
56729;DHT22;42612;52.232;7.560;2023-11-19T09:33:53;14.90;66.00
56729;DHT22;42612;52.232;7.560;2023-11-19T09:36:19;15.00;66.00
56729;DHT22;42612;52.232;7.560;2023-11-19T09:38:45;14.90;65.90
56729;DHT22;42612;52.232;7.560;2023-11-19T09:41:10;14.90;66.00
56729;DHT22;42612;52.232;7.560;2023-11-19T09:43:42;14.90;65.90
56729;DHT22;42612;52.232;7.560;2023-11-19T09:46:13;14.90;65.70
56729;DHT22;42612;52.232;7.560;2023-11-19T09:48:39;14.90;65.80
56729;DHT22;42612;52.232;7.560;2023-11-19T09:51:09;15.00;65.90
56729;DHT22;42612;52.232;7.560;2023-11-19T09:53:36;15.00;66.00
56729;DHT22;42612;52.232;7.560;2023-11-19T09:56:03;15.00;65.90
56729;DHT22;42612;52.232;7.560;2023-11-19T09:58:30;15.00;65.90
56729;DHT22;42612;52.232;7.560;2023-11-19T10:00:57;15.00;65.90
56729;DHT22;42612;52.232;7.560;2023-11-19T10:03:26;15.00;66.00
56729;DHT22;42612;52.232;7.560;2023-11-19T10:05:54;15.00;66.00
56729;DHT22;42612;52.232;7.560;2023-11-19T10:08:20;15.00;65.80
56729;DHT22;42612;52.232;7.560;2023-11-19T10:10:47;15.00;65.70
56729;DHT22;42612;52.232;7.560;2023-11-19T10:13:13;15.00;65.70
56729;DHT22;42612;52.232;7.560;2023-11-19T10:15:40;15.00;65.80
56729;DHT22;42612;52.232;7.560;2023-11-19T10:18:06;15.00;65.70
56729;DHT22;42612;52.232;7.560;2023-11-19T10:20:38;15.00;65.70
56729;DHT22;42612;52.232;7.560;2023-11-19T10:23:06;15.10;65.50
56729;DHT22;42612;52.232;7.560;2023-11-19T10:25:33;15.10;65.70
56729;DHT22;42612;52.232;7.560;2023-11-19T10:27:59;15.10;65.70
56729;DHT22;42612;52.232;7.560;2023-11-19T10:30:30;15.10;65.70
56729;DHT22;42612;52.232;7.560;2023-11-19T10:33:12;15.10;65.60
56729;DHT22;42612;52.232;7.560;2023-11-19T10:35:55;15.10;65.40
56729;DHT22;42612;52.232;7.560;2023-11-19T10:38:23;15.10;65.50
56729;DHT22;42612;52.232;7.560;2023-11-19T10:40:51;15.10;65.60
56729;DHT22;42612;52.232;7.560;2023-11-19T10:43:17;15.10;66.20
56729;DHT22;42612;52.232;7.560;2023-11-19T10:45:48;15.10;65.50
56729;DHT22;42612;52.232;7.560;2023-11-19T10:48:14;15.10;65.50
56729;DHT22;42612;52.232;7.560;2023-11-19T10:51:17;15.10;65.60
56729;DHT22;42612;52.232;7.560;2023-11-19T10:53:47;15.10;65.40
56729;DHT22;42612;52.232;7.560;2023-11-19T10:56:16;15.10;65.50
56729;DHT22;42612;52.232;7.560;2023-11-19T10:58:45;15.10;65.50
56729;DHT22;42612;52.232;7.560;2023-11-19T11:01:19;15.00;65.50
56729;DHT22;42612;52.232;7.560;2023-11-19T11:03:51;15.00;65.50
56729;DHT22;42612;52.232;7.560;2023-11-19T11:06:19;15.00;65.50
56729;DHT22;42612;52.232;7.560;2023-11-19T11:08:48;15.00;65.70
56729;DHT22;42612;52.232;7.560;2023-11-19T11:11:15;15.00;65.80
56729;DHT22;42612;52.232;7.560;2023-11-19T11:13:47;15.00;65.80
56729;DHT22;42612;52.232;7.560;2023-11-19T11:16:15;15.00;65.90
56729;DHT22;42612;52.232;7.560;2023-11-19T11:18:45;15.00;66.10
56729;DHT22;42612;52.232;7.560;2023-11-19T11:21:13;15.00;66.00
56729;DHT22;42612;52.232;7.560;2023-11-19T11:35:53;15.20;65.20
56729;DHT22;42612;52.232;7.560;2023-11-19T11:38:23;15.20;65.30
56729;DHT22;42612;52.232;7.560;2023-11-19T11:41:23;15.20;65.50
56729;DHT22;42612;52.232;7.560;2023-11-19T11:43:54;15.20;65.30
56729;DHT22;42612;52.232;7.560;2023-11-19T11:49:07;15.20;65.10
56729;DHT22;42612;52.232;7.560;2023-11-19T11:54:14;15.30;65.10
56729;DHT22;42612;52.232;7.560;2023-11-19T11:57:08;15.30;65.30
56729;DHT22;42612;52.232;7.560;2023-11-19T11:59:48;15.30;64.80
56729;DHT22;42612;52.232;7.560;2023-11-19T12:02:17;15.30;65.70
56729;DHT22;42612;52.232;7.560;2023-11-19T12:04:53;15.30;65.00
56729;DHT22;42612;52.232;7.560;2023-11-19T12:07:21;15.30;65.00
56729;DHT22;42612;52.232;7.560;2023-11-19T12:10:07;15.30;65.10
56729;DHT22;42612;52.232;7.560;2023-11-19T12:12:34;15.30;65.00
56729;DHT22;42612;52.232;7.560;2023-11-19T12:15:10;15.30;65.00
56729;DHT22;42612;52.232;7.560;2023-11-19T12:20:06;15.30;64.90
56729;DHT22;42612;52.232;7.560;2023-11-19T12:22:40;15.40;64.90
56729;DHT22;42612;52.232;7.560;2023-11-19T12:25:08;15.40;64.90
56729;DHT22;42612;52.232;7.560;2023-11-19T12:27:35;15.40;65.00
56729;DHT22;42612;52.232;7.560;2023-11-19T12:30:02;15.30;64.90
56729;DHT22;42612;52.232;7.560;2023-11-19T12:32:50;15.40;65.00
56729;DHT22;42612;52.232;7.560;2023-11-19T12:35:19;15.40;64.60
56729;DHT22;42612;52.232;7.560;2023-11-19T12:37:51;15.40;64.70
56729;DHT22;42612;52.232;7.560;2023-11-19T12:40:23;15.40;64.60
56729;DHT22;42612;52.232;7.560;2023-11-19T12:42:53;15.40;64.70
56729;DHT22;42612;52.232;7.560;2023-11-19T12:45:20;15.50;64.70
56729;DHT22;42612;52.232;7.560;2023-11-19T12:47:46;15.50;64.70
56729;DHT22;42612;52.232;7.560;2023-11-19T12:50:13;15.50;64.60
56729;DHT22;42612;52.232;7.560;2023-11-19T12:52:40;15.50;64.70
56729;DHT22;42612;52.232;7.560;2023-11-19T12:55:27;15.50;64.50
56729;DHT22;42612;52.232;7.560;2023-11-19T12:57:54;15.50;62.90
56729;DHT22;42612;52.232;7.560;2023-11-19T13:00:24;15.50;64.40
56729;DHT22;42612;52.232;7.560;2023-11-19T13:02:56;15.50;64.30
56729;DHT22;42612;52.232;7.560;2023-11-19T13:05:32;15.50;64.20
56729;DHT22;42612;52.232;7.560;2023-11-19T13:08:06;15.50;64.00
56729;DHT22;42612;52.232;7.560;2023-11-19T13:10:34;15.60;64.00
56729;DHT22;42612;52.232;7.560;2023-11-19T13:13:16;15.50;64.20
56729;DHT22;42612;52.232;7.560;2023-11-19T13:15:42;15.60;64.10
56729;DHT22;42612;52.232;7.560;2023-11-19T13:18:10;15.60;64.10
56729;DHT22;42612;52.232;7.560;2023-11-19T13:20:36;15.60;64.10
56729;DHT22;42612;52.232;7.560;2023-11-19T13:23:04;15.60;64.10
56729;DHT22;42612;52.232;7.560;2023-11-19T13:25:31;15.60;64.10
56729;DHT22;42612;52.232;7.560;2023-11-19T13:27:58;15.60;64.00
56729;DHT22;42612;52.232;7.560;2023-11-19T13:30:25;15.60;64.00
56729;DHT22;42612;52.232;7.560;2023-11-19T13:32:52;15.60;64.00
56729;DHT22;42612;52.232;7.560;2023-11-19T13:35:18;15.60;64.10
56729;DHT22;42612;52.232;7.560;2023-11-19T13:37:44;15.60;64.10
56729;DHT22;42612;52.232;7.560;2023-11-19T13:40:11;15.60;64.10
56729;DHT22;42612;52.232;7.560;2023-11-19T13:42:40;15.60;64.10
56729;DHT22;42612;52.232;7.560;2023-11-19T13:45:10;15.60;64.30
56729;DHT22;42612;52.232;7.560;2023-11-19T13:47:41;15.60;64.20
56729;DHT22;42612;52.232;7.560;2023-11-19T13:50:10;15.60;64.30
56729;DHT22;42612;52.232;7.560;2023-11-19T13:52:38;15.50;64.10
56729;DHT22;42612;52.232;7.560;2023-11-19T13:55:06;15.50;64.20
56729;DHT22;42612;52.232;7.560;2023-11-19T13:57:37;15.50;64.20
56729;DHT22;42612;52.232;7.560;2023-11-19T14:00:05;15.50;64.30
56729;DHT22;42612;52.232;7.560;2023-11-19T14:02:36;15.40;64.30
56729;DHT22;42612;52.232;7.560;2023-11-19T14:05:02;15.40;64.40
56729;DHT22;42612;52.232;7.560;2023-11-19T14:07:28;15.40;64.50
56729;DHT22;42612;52.232;7.560;2023-11-19T14:09:54;15.40;64.60
56729;DHT22;42612;52.232;7.560;2023-11-19T14:12:19;15.40;64.80
56729;DHT22;42612;52.232;7.560;2023-11-19T14:14:45;15.40;64.90
56729;DHT22;42612;52.232;7.560;2023-11-19T14:17:11;15.40;65.20
56729;DHT22;42612;52.232;7.560;2023-11-19T14:19:37;15.40;65.10
56729;DHT22;42612;52.232;7.560;2023-11-19T14:22:04;15.40;65.10
56729;DHT22;42612;52.232;7.560;2023-11-19T14:24:31;15.30;65.70
56729;DHT22;42612;52.232;7.560;2023-11-19T14:26:57;15.30;65.00
56729;DHT22;42612;52.232;7.560;2023-11-19T14:29:26;15.40;65.10
56729;DHT22;42612;52.232;7.560;2023-11-19T14:31:55;15.30;65.00
56729;DHT22;42612;52.232;7.560;2023-11-19T14:34:21;15.30;65.00
56729;DHT22;42612;52.232;7.560;2023-11-19T14:36:47;15.30;64.90
56729;DHT22;42612;52.232;7.560;2023-11-19T14:39:13;15.30;64.80
56729;DHT22;42612;52.232;7.560;2023-11-19T14:41:39;15.40;64.90
56729;DHT22;42612;52.232;7.560;2023-11-19T14:44:05;15.30;64.80
56729;DHT22;42612;52.232;7.560;2023-11-19T14:46:31;15.30;64.90
56729;DHT22;42612;52.232;7.560;2023-11-19T14:48:57;15.30;64.90
56729;DHT22;42612;52.232;7.560;2023-11-19T14:51:23;15.30;64.90
56729;DHT22;42612;52.232;7.560;2023-11-19T14:53:49;15.30;64.90
56729;DHT22;42612;52.232;7.560;2023-11-19T14:56:14;15.30;64.90
56729;DHT22;42612;52.232;7.560;2023-11-19T14:58:40;15.20;64.90
56729;DHT22;42612;52.232;7.560;2023-11-19T15:01:06;15.20;64.80
56729;DHT22;42612;52.232;7.560;2023-11-19T15:03:33;15.20;65.10
56729;DHT22;42612;52.232;7.560;2023-11-19T15:05:59;15.20;64.80
56729;DHT22;42612;52.232;7.560;2023-11-19T15:08:25;15.30;64.80
56729;DHT22;42612;52.232;7.560;2023-11-19T15:10:51;15.20;64.70
56729;DHT22;42612;52.232;7.560;2023-11-19T15:13:16;15.20;64.70
56729;DHT22;42612;52.232;7.560;2023-11-19T15:15:42;15.20;64.60
56729;DHT22;42612;52.232;7.560;2023-11-19T15:18:08;15.20;64.60
56729;DHT22;42612;52.232;7.560;2023-11-19T15:20:35;15.20;64.60
56729;DHT22;42612;52.232;7.560;2023-11-19T15:23:01;15.20;64.70
56729;DHT22;42612;52.232;7.560;2023-11-19T15:25:27;15.20;64.70
56729;DHT22;42612;52.232;7.560;2023-11-19T15:27:53;15.20;64.70
56729;DHT22;42612;52.232;7.560;2023-11-19T15:30:19;15.20;64.60
56729;DHT22;42612;52.232;7.560;2023-11-19T15:32:45;15.20;64.60
56729;DHT22;42612;52.232;7.560;2023-11-19T15:35:11;15.20;64.60
56729;DHT22;42612;52.232;7.560;2023-11-19T15:37:37;15.20;64.50
56729;DHT22;42612;52.232;7.560;2023-11-19T15:40:06;15.20;64.60
56729;DHT22;42612;52.232;7.560;2023-11-19T15:42:34;15.20;64.60
56729;DHT22;42612;52.232;7.560;2023-11-19T15:45:00;15.10;64.60
56729;DHT22;42612;52.232;7.560;2023-11-19T15:47:29;15.20;64.70
56729;DHT22;42612;52.232;7.560;2023-11-19T15:49:55;15.10;64.80
56729;DHT22;42612;52.232;7.560;2023-11-19T15:52:22;15.10;64.90